createdAt,value
2023-03-21T00:02:06.064Z,8.81
2023-03-21T00:07:08.483Z,8.82
2023-03-21T00:12:14.765Z,8.80
2023-03-21T00:17:33.307Z,8.75
2023-03-21T00:22:36.166Z,8.69
2023-03-21T00:27:57.245Z,8.64
2023-03-21T00:33:21.722Z,8.60
2023-03-21T00:38:26.704Z,8.54
2023-03-21T00:43:32.926Z,8.49
2023-03-21T00:48:45.969Z,8.45
2023-03-21T00:53:49.701Z,8.43
2023-03-21T00:58:52.588Z,8.43
2023-03-21T01:04:05.345Z,8.41
2023-03-21T01:09:27.241Z,8.41
2023-03-21T01:14:44.863Z,8.40
2023-03-21T01:19:52.539Z,8.38
2023-03-21T01:25:19.314Z,8.38
2023-03-21T01:30:33.916Z,8.36
2023-03-21T01:36:09.997Z,8.30
2023-03-21T01:41:45.830Z,8.24
2023-03-21T01:47:18.937Z,8.21
2023-03-21T01:52:42.002Z,8.23
2023-03-21T01:58:07.424Z,8.19
2023-03-21T02:03:50.077Z,8.12
2023-03-21T02:09:29.057Z,8.06
2023-03-21T02:14:36.594Z,8.01
2023-03-21T02:19:55.978Z,7.96
2023-03-21T02:25:40.000Z,7.92
2023-03-21T02:31:46.664Z,7.88
2023-03-21T02:37:11.384Z,7.86
2023-03-21T02:42:22.864Z,7.86
2023-03-21T02:47:53.135Z,7.85
2023-03-21T02:53:20.168Z,7.83
2023-03-21T02:58:32.888Z,7.80
2023-03-21T03:04:04.757Z,7.77
2023-03-21T03:09:58.895Z,7.74
2023-03-21T03:15:25.230Z,7.73
2023-03-21T03:21:39.098Z,7.71
2023-03-21T03:27:23.430Z,7.69
2023-03-21T03:33:09.454Z,7.68
2023-03-21T03:38:45.055Z,7.68
2023-03-21T03:44:26.106Z,7.65
2023-03-21T03:50:26.684Z,7.63
2023-03-21T03:55:49.900Z,7.62
2023-03-21T04:01:00.660Z,7.60
2023-03-21T04:06:29.104Z,7.59
2023-03-21T04:12:13.453Z,7.63
2023-03-21T04:17:30.874Z,7.68
2023-03-21T04:22:46.265Z,7.67
2023-03-21T04:28:06.776Z,7.63
2023-03-21T04:33:38.512Z,7.57
2023-03-21T04:39:12.957Z,7.54
2023-03-21T04:44:40.946Z,7.51
2023-03-21T04:49:56.397Z,7.47
2023-03-21T04:55:10.422Z,7.42
2023-03-21T05:00:30.294Z,7.40
2023-03-21T05:05:54.468Z,7.38
2023-03-21T05:10:57.940Z,7.35
2023-03-21T05:16:04.088Z,7.36
2023-03-21T05:21:30.178Z,7.36
2023-03-21T05:26:32.994Z,7.37
2023-03-21T05:31:50.349Z,7.37
2023-03-21T05:37:07.306Z,7.39
2023-03-21T05:42:21.476Z,7.39
2023-03-21T05:47:26.857Z,7.38
2023-03-21T05:52:35.612Z,7.40
2023-03-21T05:57:44.861Z,7.46
2023-03-21T06:03:14.325Z,7.51
2023-03-21T06:09:28.790Z,7.56
2023-03-21T06:14:33.811Z,7.63
2023-03-21T06:20:10.619Z,7.77
2023-03-21T06:25:26.799Z,7.90
2023-03-21T06:30:34.372Z,7.97
2023-03-21T06:36:10.286Z,8.07
2023-03-21T06:41:55.928Z,8.09
2023-03-21T06:47:08.906Z,8.11
2023-03-21T06:52:15.372Z,8.17
2023-03-21T06:57:46.524Z,8.23
2023-03-21T07:02:53.831Z,8.26
2023-03-21T07:08:03.645Z,8.32
2023-03-21T07:13:12.016Z,8.40
2023-03-21T07:18:43.297Z,8.50
2023-03-21T07:23:52.224Z,8.59
2023-03-21T07:29:00.685Z,8.68
2023-03-21T07:34:23.887Z,8.76
2023-03-21T07:39:34.780Z,8.93
2023-03-21T07:45:10.651Z,9.08
2023-03-21T07:50:49.165Z,9.18
2023-03-21T07:56:03.337Z,9.23
2023-03-21T08:01:08.805Z,9.23
2023-03-21T08:06:31.298Z,9.26
2023-03-21T08:11:33.806Z,9.36
2023-03-21T08:16:36.628Z,9.50
2023-03-21T08:21:40.104Z,9.56
2023-03-21T08:26:46.091Z,9.59
2023-03-21T08:31:56.255Z,9.72
2023-03-21T08:37:03.022Z,9.88
2023-03-21T08:42:05.969Z,9.96
2023-03-21T08:47:20.439Z,9.97
2023-03-21T08:52:23.830Z,9.94
2023-03-21T08:57:29.128Z,9.93
2023-03-21T09:02:31.907Z,9.97
2023-03-21T09:07:50.662Z,10.06
2023-03-21T09:12:55.918Z,10.20
2023-03-21T09:18:13.157Z,10.32
2023-03-21T09:23:32.049Z,10.40
2023-03-21T09:28:43.268Z,10.37
2023-03-21T09:33:46.384Z,10.27
2023-03-21T09:38:52.602Z,10.19
2023-03-21T09:44:14.437Z,10.19
2023-03-21T09:50:17.268Z,10.21
2023-03-21T09:55:36.696Z,10.24
2023-03-21T10:00:48.653Z,10.31
2023-03-21T10:06:01.163Z,10.36
2023-03-21T10:11:34.849Z,10.39
2023-03-21T10:16:59.746Z,10.33
2023-03-21T10:22:05.462Z,10.27
2023-03-21T10:27:09.954Z,10.20
2023-03-21T10:32:25.346Z,10.22
2023-03-21T10:37:30.730Z,10.27
2023-03-21T10:42:50.403Z,10.32
2023-03-21T10:47:55.918Z,10.53
2023-03-21T10:53:01.837Z,10.75
2023-03-21T10:58:10.915Z,11.02
2023-03-21T11:03:34.255Z,11.24
2023-03-21T11:09:03.816Z,11.31
2023-03-21T11:14:09.584Z,11.21
2023-03-21T11:19:16.151Z,11.07
2023-03-21T11:24:20.200Z,10.94
2023-03-21T11:29:39.278Z,11.01
2023-03-21T11:34:48.836Z,11.01
2023-03-21T11:40:36.438Z,10.90
2023-03-21T11:45:58.826Z,10.84
2023-03-21T11:51:19.224Z,10.84
2023-03-21T11:56:49.551Z,10.84
2023-03-21T12:02:16.528Z,10.78
2023-03-21T12:07:44.166Z,10.86
2023-03-21T12:13:03.926Z,10.99
2023-03-21T12:19:00.919Z,11.10
2023-03-21T12:24:18.614Z,11.17
2023-03-21T12:29:28.185Z,11.26
2023-03-21T12:34:36.615Z,11.29
2023-03-21T12:39:40.875Z,11.25
2023-03-21T12:44:52.359Z,11.35
2023-03-21T12:50:13.906Z,11.52
2023-03-21T12:55:23.963Z,11.60
2023-03-21T13:00:28.758Z,11.66
2023-03-21T13:05:55.207Z,11.77
2023-03-21T13:11:00.254Z,11.85
2023-03-21T13:16:23.556Z,11.98
2023-03-21T13:21:55.786Z,12.09
2023-03-21T13:27:21.105Z,12.21
2023-03-21T13:32:39.179Z,12.40
2023-03-21T13:37:51.817Z,12.63
2023-03-21T13:43:22.113Z,12.75
2023-03-21T13:48:49.431Z,12.81
2023-03-21T13:54:17.642Z,12.78
2023-03-21T13:59:38.328Z,12.72
2023-03-21T14:05:00.191Z,12.72
2023-03-21T14:10:35.675Z,12.64
2023-03-21T14:16:12.765Z,12.49
2023-03-21T14:21:24.370Z,12.45
2023-03-21T14:32:24.904Z,12.55
2023-03-21T14:37:41.164Z,12.51
2023-03-21T14:42:48.500Z,12.34
2023-03-21T14:48:18.837Z,12.16
2023-03-21T14:53:30.577Z,11.95
2023-03-21T14:58:46.200Z,11.80
2023-03-21T15:03:53.099Z,11.65
2023-03-21T15:09:04.192Z,11.50
2023-03-21T15:14:30.385Z,11.33
2023-03-21T15:19:37.418Z,11.26
2023-03-21T15:24:55.913Z,11.19
2023-03-21T15:29:58.807Z,11.09
2023-03-21T15:35:08.705Z,11.01
2023-03-21T15:40:37.414Z,10.99
2023-03-21T15:45:56.202Z,10.93
2023-03-21T15:51:05.978Z,10.84
2023-03-21T15:56:20.263Z,10.79
2023-03-21T16:01:26.553Z,10.69
2023-03-21T16:06:35.221Z,10.58
2023-03-21T16:11:49.392Z,10.48
2023-03-21T16:16:51.660Z,10.39
2023-03-21T16:21:54.262Z,10.34
2023-03-21T16:26:59.314Z,10.33
2023-03-21T16:32:06.136Z,10.33
2023-03-21T16:37:12.367Z,10.30
2023-03-21T16:42:14.633Z,10.25
2023-03-21T16:47:23.840Z,10.14
2023-03-21T16:52:50.418Z,10.03
2023-03-21T16:57:53.982Z,9.96
2023-03-21T17:03:03.018Z,9.85
2023-03-21T17:08:06.513Z,9.73
2023-03-21T17:13:08.676Z,9.65
2023-03-21T17:18:21.204Z,9.59
2023-03-21T17:23:23.542Z,9.54
2023-03-21T17:28:28.243Z,9.52
2023-03-21T17:33:33.246Z,9.52
2023-03-21T17:38:51.564Z,9.45
2023-03-21T17:44:03.126Z,9.43
2023-03-21T17:49:06.525Z,9.41
2023-03-21T17:54:09.484Z,9.39
2023-03-21T17:59:14.258Z,9.35
2023-03-21T18:04:21.581Z,9.31
2023-03-21T18:09:58.014Z,9.24
2023-03-21T18:15:04.196Z,9.18
2023-03-21T18:20:10.339Z,9.12
2023-03-21T18:25:20.519Z,9.07
2023-03-21T18:30:56.937Z,9.05
2023-03-21T18:36:13.600Z,9.04
2023-03-21T18:41:19.829Z,9.01
2023-03-21T18:46:30.518Z,8.96
2023-03-21T18:51:33.014Z,8.91
2023-03-21T18:57:27.464Z,8.88
2023-03-21T19:02:03.237Z,8.87
2023-03-21T19:07:08.091Z,8.82
2023-03-21T19:12:10.556Z,8.76
2023-03-21T19:18:15.299Z,8.76
2023-03-21T19:22:45.157Z,8.75
2023-03-21T19:28:00.738Z,8.72
2023-03-21T19:33:05.302Z,8.69
2023-03-21T19:38:07.926Z,8.65
2023-03-21T19:43:32.126Z,8.60
2023-03-21T19:48:44.814Z,8.59
2023-03-21T19:53:50.318Z,8.60
2023-03-21T19:58:52.995Z,8.63
2023-03-21T20:03:58.798Z,8.66
2023-03-21T20:14:24.871Z,8.69
2023-03-21T20:19:27.239Z,8.69
2023-03-21T20:24:31.648Z,8.66
2023-03-21T20:30:10.777Z,8.64
2023-03-21T20:36:16.392Z,8.63
2023-03-21T20:40:55.369Z,8.62
2023-03-21T20:46:12.793Z,8.62
2023-03-21T20:56:42.895Z,8.64
2023-03-21T21:01:45.230Z,8.65
2023-03-21T21:06:50.903Z,8.64
2023-03-21T21:12:06.562Z,8.62
2023-03-21T21:22:59.649Z,8.55
2023-03-21T21:28:09.170Z,8.53
2023-03-21T21:33:11.473Z,8.54
2023-03-21T21:38:23.443Z,8.54
2023-03-21T21:43:27.842Z,8.52
2023-03-21T21:48:34.124Z,8.46
2023-03-21T21:53:36.951Z,8.43
2023-03-21T21:58:46.089Z,8.42
2023-03-21T22:03:48.684Z,8.41
2023-03-21T22:08:52.133Z,8.39
2023-03-21T22:14:01.686Z,8.36
2023-03-21T22:19:04.305Z,8.35
2023-03-21T22:24:09.803Z,8.29
2023-03-21T22:29:14.645Z,8.26
2023-03-21T22:34:17.140Z,8.23
2023-03-21T22:39:26.481Z,8.24
2023-03-21T22:44:38.934Z,8.21
2023-03-21T22:49:46.368Z,8.16
2023-03-21T22:54:55.662Z,8.02
2023-03-21T23:00:01.454Z,7.93
2023-03-21T23:05:08.971Z,7.86
2023-03-21T23:10:13.446Z,7.78
2023-03-21T23:15:25.429Z,7.69
2023-03-21T23:20:27.627Z,7.60
2023-03-21T23:25:55.739Z,7.50
2023-03-21T23:30:58.210Z,7.40
2023-03-21T23:36:03.435Z,7.27
2023-03-21T23:41:18.950Z,7.16
2023-03-21T23:46:23.686Z,7.11
2023-03-21T23:51:28.889Z,7.05
2023-03-21T23:56:35.763Z,7.05
